Hlavní strana
METAR-TAF:

METAR-TAF

Letiště :

Mezinárodní letiště Minsk

Minsk, Bělorusko

zeměpisná šířka: 53-56N, zeměpisná délka: 027-38E, výška: 234 m

Aktuální stav počasí

Zpráva byla vytvořena před 40 minutami, v 04:00 UTC
Severozápadní vítr 6 kt
Teplota -4°C
Vlhkost vzduchu 93%
Tlak 1030 hPa
Viditelnost 10 km a více
Žádná oblačnost pod 1500 m, nevyskytují se cumulonimby.

METAR: UMMS 050400Z 32003MPS CAVOK M04/M05 Q1030 R31R/CLRD// R31L/////// NOSIG

Čas: 07:40 (04:40 UTC)

Předpověď počasí

Zpráva byla vytvořena před 5 hodinami a 36 minutami, v 23:04 UTC
Předpověď platná od 05 v 00 UTC do 05 v 24 UTC
Západní vítr 12 kt
Viditelnost 10 km a více
Oblačno až skoro zataženo ve výšce 1000 ft
Dočasný
od 05 v 00 UTC do 05 v 06 UTC
Viditelnost: 1500 m
Polojasno ve výšce 300 ft
kouřmo
Dočasný
od 05 v 06 UTC do 05 v 18 UTC
Západoseverozápadní vítr 12 kt s nárazy do 21 kt

TAF: UMMS 042304Z 0500/0524 28006MPS 9999 BKN010 TEMPO 0500/0506 1500 BR SCT003 TEMPO 0506/0518 30006G11MPS

Stav a předpovědi počasí z více než 4 000 letišť (zprávy METAR a TAF).

Červené a žluté tečky na mapě představují dostupné meteorologické stanice.

Když kurzor umístíte na tečku, zobrazí se název stanice.

Pak kliknutím zobrazíte stav a předpověď počasí.

Chcete-li změnit mapu, kliknutím na zelené tlačítko se znaménkem +mapu přiblížíte, kliknutím na zelené tlačítko se znaménkem – mapu oddálíte a kliknutím na zelené šipky přejdete na sousední mapy.


METAR-TAF: